createdAt,value
2018-05-10T00:01:09.311Z,48.50
2018-05-10T00:03:36.700Z,50.07
2018-05-10T00:06:04.079Z,51.40
2018-05-10T00:08:31.467Z,52.43
2018-05-10T00:10:58.857Z,49.53
2018-05-10T00:13:26.243Z,52.17
2018-05-10T00:15:53.626Z,51.67
2018-05-10T00:18:21.020Z,48.10
2018-05-10T00:20:48.404Z,49.77
2018-05-10T00:23:15.840Z,51.83
2018-05-10T00:25:43.227Z,46.90
2018-05-10T00:28:10.607Z,42.43
2018-05-10T00:30:37.991Z,47.30
2018-05-10T00:33:05.375Z,49.47
2018-05-10T00:35:32.767Z,47.10
2018-05-10T00:38:00.143Z,48.37
2018-05-10T00:40:27.535Z,47.10
2018-05-10T00:42:54.951Z,46.77
2018-05-10T00:45:22.344Z,44.93
2018-05-10T00:47:49.723Z,47.07
2018-05-10T00:50:17.107Z,47.03
2018-05-10T00:52:44.490Z,47.43
2018-05-10T00:55:11.875Z,43.93
2018-05-10T00:57:39.267Z,45.60
2018-05-10T01:00:06.651Z,46.40
2018-05-10T01:02:34.043Z,46.20
2018-05-10T01:05:01.444Z,45.53
2018-05-10T01:07:28.855Z,49.00
2018-05-10T01:09:56.243Z,46.93
2018-05-10T01:12:23.634Z,50.07
2018-05-10T01:14:51.010Z,49.90
2018-05-10T01:17:18.391Z,50.50
2018-05-10T01:19:45.775Z,50.23
2018-05-10T01:22:13.164Z,49.13
2018-05-10T01:24:40.551Z,49.77
2018-05-10T01:27:07.941Z,47.90
2018-05-10T01:29:35.332Z,48.23
2018-05-10T01:32:02.712Z,48.20
2018-05-10T01:34:30.107Z,46.57
2018-05-10T01:36:57.490Z,46.77
2018-05-10T01:39:24.879Z,45.73
2018-05-10T01:41:52.267Z,44.83
2018-05-10T01:44:19.670Z,44.30
2018-05-10T01:46:47.203Z,46.40
2018-05-10T01:49:14.587Z,43.60
2018-05-10T01:51:41.971Z,42.23
2018-05-10T01:54:09.350Z,39.00
2018-05-10T01:56:36.745Z,36.50
2018-05-10T01:59:04.122Z,35.80
2018-05-10T02:01:31.508Z,34.70
2018-05-10T02:03:58.944Z,35.67
2018-05-10T02:06:26.367Z,34.60
2018-05-10T02:08:53.727Z,37.10
2018-05-10T02:11:21.112Z,33.97
2018-05-10T02:13:48.507Z,33.53
2018-05-10T02:16:15.892Z,35.13
2018-05-10T02:18:43.288Z,34.17
2018-05-10T02:21:10.678Z,32.80
2018-05-10T02:23:38.058Z,33.20
2018-05-10T02:26:05.445Z,38.77
2018-05-10T02:28:32.832Z,37.37
2018-05-10T02:31:00.211Z,42.17
2018-05-10T02:33:27.611Z,41.53
2018-05-10T02:35:54.991Z,43.27
2018-05-10T02:38:22.374Z,44.47
2018-05-10T02:40:49.780Z,44.60
2018-05-10T02:43:17.160Z,44.63
2018-05-10T02:45:44.539Z,43.53
2018-05-10T02:48:11.923Z,44.20
2018-05-10T02:50:39.308Z,44.97
2018-05-10T02:53:06.700Z,40.67
2018-05-10T02:55:34.179Z,41.37
2018-05-10T02:58:01.567Z,40.97
2018-05-10T03:00:28.963Z,40.67
2018-05-10T03:02:56.352Z,41.17
2018-05-10T03:05:23.744Z,41.90
2018-05-10T03:07:51.132Z,40.30
2018-05-10T03:10:18.506Z,36.77
2018-05-10T03:12:45.895Z,39.60
2018-05-10T03:15:13.271Z,37.67
2018-05-10T03:17:40.655Z,36.13
2018-05-10T03:20:08.046Z,36.57
2018-05-10T03:22:35.439Z,31.50
2018-05-10T03:25:02.816Z,31.37
2018-05-10T03:27:30.294Z,30.40
2018-05-10T03:29:57.763Z,30.20
2018-05-10T03:32:25.075Z,29.13
2018-05-10T03:34:52.459Z,28.83
2018-05-10T03:37:19.847Z,26.93
2018-05-10T03:39:47.227Z,27.37
2018-05-10T03:42:14.615Z,29.57
2018-05-10T03:44:42.019Z,30.50
2018-05-10T03:47:09.408Z,32.90
2018-05-10T03:49:36.795Z,36.20
2018-05-10T03:52:04.186Z,37.67
2018-05-10T03:54:31.571Z,36.30
2018-05-10T03:56:58.951Z,37.70
2018-05-10T03:59:26.338Z,38.63
2018-05-10T04:01:53.727Z,40.90
2018-05-10T04:04:32.966Z,43.87
2018-05-10T04:07:12.158Z,42.27
2018-05-10T04:12:44.266Z,42.20
2018-05-10T04:15:11.663Z,47.10
2018-05-10T04:17:39.039Z,44.80
2018-05-10T04:20:06.428Z,43.77
2018-05-10T04:22:33.957Z,42.73
2018-05-10T04:25:01.343Z,43.57
2018-05-10T04:27:28.735Z,43.13
2018-05-10T04:29:56.123Z,44.37
2018-05-10T04:32:23.506Z,44.97
2018-05-10T04:34:50.904Z,43.30
2018-05-10T04:37:18.279Z,43.33
2018-05-10T04:39:45.659Z,42.37
2018-05-10T04:42:14.150Z,45.77
2018-05-10T04:44:41.490Z,45.83
2018-05-10T04:47:08.881Z,42.97
2018-05-10T04:49:36.259Z,44.23
2018-05-10T04:52:03.860Z,42.57
2018-05-10T04:54:31.254Z,42.80
2018-05-10T04:56:58.647Z,41.67
2018-05-10T04:59:26.032Z,41.20
2018-05-10T05:01:53.436Z,41.40
2018-05-10T05:04:20.823Z,39.90
2018-05-10T05:06:48.207Z,41.97
2018-05-10T05:09:15.599Z,39.77
2018-05-10T05:11:42.984Z,39.17
2018-05-10T05:14:10.384Z,40.10
2018-05-10T05:16:37.755Z,40.40
2018-05-10T05:19:05.159Z,39.63
2018-05-10T05:21:32.553Z,36.47
2018-05-10T05:23:59.979Z,35.93
2018-05-10T05:26:27.363Z,35.00
2018-05-10T05:28:54.771Z,33.17
2018-05-10T05:31:22.155Z,36.23
2018-05-10T05:33:49.551Z,35.67
2018-05-10T05:36:16.939Z,32.40
2018-05-10T05:38:44.335Z,29.37
2018-05-10T05:41:11.810Z,29.47
2018-05-10T05:43:39.111Z,30.23
2018-05-10T05:46:06.495Z,29.87
2018-05-10T05:48:33.882Z,28.07
2018-05-10T05:51:01.271Z,26.63
2018-05-10T05:53:28.661Z,26.40
2018-05-10T05:55:56.047Z,24.93
2018-05-10T05:58:23.430Z,25.40
2018-05-10T06:00:50.850Z,24.10
2018-05-10T06:03:18.230Z,24.27
2018-05-10T06:05:45.599Z,25.13
2018-05-10T06:08:12.992Z,29.03
2018-05-10T06:10:40.371Z,24.30
2018-05-10T06:13:07.763Z,22.87
2018-05-10T06:15:35.230Z,26.70
2018-05-10T06:18:02.537Z,28.90
2018-05-10T06:20:29.919Z,26.63
2018-05-10T06:22:57.307Z,29.87
2018-05-10T06:25:24.690Z,24.87
2018-05-10T06:27:52.081Z,27.40
2018-05-10T06:30:19.463Z,24.27
2018-05-10T06:32:46.850Z,24.70
2018-05-10T06:35:14.231Z,26.47
2018-05-10T06:37:41.651Z,26.37
2018-05-10T06:40:09.047Z,27.33
2018-05-10T06:42:36.422Z,30.07
2018-05-10T06:45:03.816Z,24.20
2018-05-10T06:47:31.200Z,26.30
2018-05-10T06:49:58.591Z,25.87
2018-05-10T06:52:25.976Z,24.97
2018-05-10T06:54:53.367Z,30.00
2018-05-10T06:57:20.903Z,28.77
2018-05-10T06:59:48.291Z,28.60
2018-05-10T07:02:15.674Z,30.27
2018-05-10T07:04:43.070Z,27.90
2018-05-10T07:07:10.558Z,32.67
2018-05-10T07:09:37.956Z,31.30
2018-05-10T07:12:05.366Z,30.80
2018-05-10T07:14:32.754Z,24.83
2018-05-10T07:17:00.147Z,27.30
2018-05-10T07:19:27.528Z,31.93
2018-05-10T07:21:54.919Z,26.07
2018-05-10T07:24:22.299Z,27.07
2018-05-10T07:26:49.715Z,30.33
2018-05-10T07:29:17.099Z,33.80
2018-05-10T07:31:44.687Z,27.33
2018-05-10T07:34:12.071Z,26.87
2018-05-10T07:36:39.477Z,28.03
2018-05-10T07:39:06.863Z,26.50
2018-05-10T07:41:34.261Z,27.43
2018-05-10T07:44:01.647Z,31.83
2018-05-10T07:46:29.032Z,30.23
2018-05-10T07:48:56.419Z,35.13
2018-05-10T07:51:23.805Z,32.37
2018-05-10T07:53:58.882Z,31.27
2018-05-10T07:56:26.639Z,30.10
2018-05-10T07:58:54.101Z,34.87
2018-05-10T08:01:21.421Z,36.97
2018-05-10T08:03:48.930Z,60.23
2018-05-10T08:06:16.315Z,59.30
2018-05-10T08:08:43.741Z,30.57
2018-05-10T08:11:11.119Z,31.93
2018-05-10T08:13:38.499Z,30.03
2018-05-10T08:16:05.887Z,29.97
2018-05-10T08:18:33.271Z,27.83
2018-05-10T08:21:00.663Z,33.63
2018-05-10T08:23:28.062Z,30.70
2018-05-10T08:25:55.443Z,27.00
2018-05-10T08:28:22.831Z,32.10
2018-05-10T08:30:50.219Z,29.03
2018-05-10T08:33:17.654Z,29.60
2018-05-10T08:35:45.039Z,32.00
2018-05-10T08:38:12.427Z,30.67
2018-05-10T08:40:39.835Z,30.17
2018-05-10T08:43:07.223Z,28.73
2018-05-10T08:45:34.610Z,30.23
2018-05-10T08:48:02.011Z,20.87
2018-05-10T08:50:29.437Z,20.40
2018-05-10T08:52:56.822Z,18.13
2018-05-10T08:55:24.258Z,19.90
2018-05-10T08:57:51.643Z,18.70
2018-05-10T09:00:19.038Z,17.53
2018-05-10T09:02:46.410Z,17.33
2018-05-10T09:05:14.480Z,17.53
2018-05-10T09:07:42.027Z,15.13
2018-05-10T09:10:09.421Z,13.83
2018-05-10T09:12:36.807Z,12.67
2018-05-10T09:15:04.194Z,13.80
2018-05-10T09:17:31.578Z,12.73
2018-05-10T09:19:58.958Z,12.90
2018-05-10T09:22:26.347Z,14.77
2018-05-10T09:24:53.797Z,14.03
2018-05-10T09:27:21.193Z,12.27
2018-05-10T09:29:48.611Z,11.90
2018-05-10T09:32:16.007Z,13.60
2018-05-10T09:34:43.392Z,12.20
2018-05-10T09:37:10.783Z,13.40
2018-05-10T09:39:38.168Z,14.10
2018-05-10T09:42:05.555Z,12.13
2018-05-10T09:44:32.938Z,10.27
2018-05-10T09:47:00.323Z,12.03
2018-05-10T09:49:27.707Z,11.27
2018-05-10T09:51:55.597Z,10.77
2018-05-10T09:54:22.979Z,10.63
2018-05-10T09:56:50.361Z,11.03
2018-05-10T09:59:17.749Z,11.10
2018-05-10T10:01:45.126Z,15.20
2018-05-10T10:04:12.515Z,11.80
2018-05-10T10:06:39.896Z,11.27
2018-05-10T10:09:07.279Z,11.37
2018-05-10T10:11:34.731Z,10.87
2018-05-10T10:14:02.048Z,10.30
2018-05-10T10:16:29.431Z,11.37
2018-05-10T10:18:56.811Z,10.43
2018-05-10T10:21:24.288Z,10.90
2018-05-10T10:23:52.138Z,11.30
2018-05-10T10:26:19.514Z,10.07
2018-05-10T10:28:46.911Z,11.47
2018-05-10T10:31:14.387Z,11.57
2018-05-10T10:33:41.769Z,9.10
2018-05-10T10:36:09.146Z,9.03
2018-05-10T10:38:36.521Z,8.90
2018-05-10T10:41:03.907Z,8.67
2018-05-10T10:43:31.388Z,14.73
2018-05-10T10:45:58.773Z,9.70
2018-05-10T10:48:26.147Z,12.40
2018-05-10T10:50:53.537Z,10.40
2018-05-10T10:53:20.915Z,15.13
2018-05-10T10:55:48.292Z,11.37
2018-05-10T10:58:15.675Z,10.33
2018-05-10T11:00:43.062Z,12.20
2018-05-10T11:03:10.446Z,12.37
2018-05-10T11:05:37.840Z,13.87
2018-05-10T11:08:05.226Z,17.53
2018-05-10T11:10:32.611Z,15.97
2018-05-10T11:12:59.995Z,14.93
2018-05-10T11:15:27.385Z,15.80
2018-05-10T11:17:54.780Z,18.30
2018-05-10T11:20:22.151Z,18.10
2018-05-10T11:22:49.530Z,20.20
2018-05-10T11:25:16.916Z,23.63
2018-05-10T11:27:44.300Z,22.03
2018-05-10T11:30:11.687Z,24.60
2018-05-10T11:32:39.077Z,28.50
2018-05-10T11:35:06.464Z,29.73
2018-05-10T11:37:33.840Z,28.30
2018-05-10T11:40:01.227Z,31.17
2018-05-10T11:42:28.631Z,31.80
2018-05-10T11:44:56.013Z,29.87
2018-05-10T11:47:23.393Z,25.57
2018-05-10T11:49:50.819Z,27.57
2018-05-10T11:52:18.207Z,26.00
2018-05-10T11:54:45.592Z,27.17
2018-05-10T11:57:13.053Z,25.70
2018-05-10T11:59:40.350Z,27.63
2018-05-10T12:02:07.803Z,29.30
2018-05-10T12:04:35.129Z,29.57
2018-05-10T12:07:02.518Z,29.97
2018-05-10T12:09:29.907Z,31.30
2018-05-10T12:11:57.290Z,27.50
2018-05-10T12:14:24.676Z,25.37
2018-05-10T12:16:52.063Z,29.47
2018-05-10T12:19:19.586Z,25.80
2018-05-10T12:21:46.883Z,26.63
2018-05-10T12:24:14.268Z,27.67
2018-05-10T12:26:41.647Z,31.93
2018-05-10T12:29:09.115Z,25.10
2018-05-10T12:31:36.639Z,26.23
2018-05-10T12:34:04.030Z,25.67
2018-05-10T12:36:31.415Z,26.70
2018-05-10T12:38:58.807Z,27.60
2018-05-10T12:41:26.187Z,27.50
2018-05-10T12:43:53.587Z,27.87
2018-05-10T12:46:20.980Z,29.03
2018-05-10T12:48:48.363Z,32.43
2018-05-10T12:51:15.746Z,30.03
2018-05-10T12:53:43.210Z,30.67
2018-05-10T12:56:10.750Z,28.70
2018-05-10T12:58:38.259Z,28.80
2018-05-10T13:01:05.649Z,30.20
2018-05-10T13:03:33.027Z,29.20
2018-05-10T13:06:00.461Z,27.70
2018-05-10T13:08:27.905Z,32.00
2018-05-10T13:10:55.224Z,29.70
2018-05-10T13:13:22.653Z,28.57
2018-05-10T13:15:50.004Z,29.33
2018-05-10T13:18:17.399Z,29.97
2018-05-10T13:20:44.787Z,30.53
2018-05-10T13:23:12.179Z,28.97
2018-05-10T13:25:39.567Z,29.53
2018-05-10T13:28:06.962Z,31.00
2018-05-10T13:30:34.335Z,29.90
2018-05-10T13:33:01.726Z,29.50
2018-05-10T13:35:29.107Z,29.53
2018-05-10T13:37:56.494Z,29.53
2018-05-10T13:40:23.883Z,29.07
2018-05-10T13:42:51.359Z,33.23
2018-05-10T13:45:18.764Z,30.27
2018-05-10T13:47:46.138Z,30.90
2018-05-10T13:50:13.540Z,29.87
2018-05-10T13:52:40.908Z,29.73
2018-05-10T13:55:08.313Z,29.47
2018-05-10T13:57:35.686Z,31.57
2018-05-10T14:00:03.095Z,32.13
2018-05-10T14:02:30.498Z,31.70
2018-05-10T14:04:57.931Z,31.17
2018-05-10T14:07:25.351Z,33.97
2018-05-10T14:09:52.811Z,31.07
2018-05-10T14:12:20.275Z,33.43
2018-05-10T14:14:47.677Z,30.27
2018-05-10T14:17:15.063Z,34.03
2018-05-10T14:19:42.471Z,33.53
2018-05-10T14:22:09.967Z,33.40
2018-05-10T14:24:37.244Z,32.00
2018-05-10T14:27:04.657Z,32.77
2018-05-10T14:29:32.051Z,34.40
2018-05-10T14:31:59.436Z,31.67
2018-05-10T14:34:26.835Z,34.97
2018-05-10T14:36:54.223Z,34.27
2018-05-10T14:39:21.666Z,34.27
2018-05-10T14:41:49.004Z,31.50
2018-05-10T14:44:16.397Z,31.87
2018-05-10T14:46:43.837Z,33.90
2018-05-10T14:49:11.170Z,29.70
2018-05-10T14:51:38.559Z,31.00
2018-05-10T14:54:05.954Z,30.97
2018-05-10T14:56:33.346Z,32.60
2018-05-10T14:59:00.731Z,28.80
2018-05-10T15:01:28.131Z,30.07
2018-05-10T15:03:55.521Z,28.63
2018-05-10T15:06:22.915Z,28.40
2018-05-10T15:08:50.300Z,27.13
2018-05-10T15:11:17.695Z,25.87
2018-05-10T15:13:45.091Z,26.17
2018-05-10T15:16:12.497Z,26.17
2018-05-10T15:18:39.887Z,28.23
2018-05-10T15:21:07.347Z,24.47
2018-05-10T15:23:35.177Z,23.37
2018-05-10T15:26:02.483Z,24.53
2018-05-10T15:28:29.874Z,22.10
2018-05-10T15:30:57.268Z,25.47
2018-05-10T15:33:24.668Z,22.87
2018-05-10T15:35:52.051Z,26.43
2018-05-10T15:38:19.447Z,22.90
2018-05-10T15:40:46.839Z,22.10
2018-05-10T15:43:14.236Z,23.67
2018-05-10T15:45:41.621Z,21.30
2018-05-10T15:48:09.317Z,23.37
2018-05-10T15:50:36.703Z,22.33
2018-05-10T15:53:04.096Z,20.30
2018-05-10T15:55:31.479Z,19.83
2018-05-10T15:57:58.874Z,19.07
2018-05-10T16:00:26.459Z,20.73
2018-05-10T16:02:53.851Z,19.37
2018-05-10T16:05:21.280Z,19.87
2018-05-10T16:07:48.672Z,15.67
2018-05-10T16:10:16.260Z,15.63
2018-05-10T16:12:43.643Z,15.10
2018-05-10T16:15:11.099Z,14.47
2018-05-10T16:17:38.463Z,14.57
2018-05-10T16:20:05.863Z,13.87
2018-05-10T16:22:33.251Z,14.73
2018-05-10T16:25:00.649Z,12.73
2018-05-10T16:27:28.036Z,12.80
2018-05-10T16:29:55.430Z,17.83
2018-05-10T16:32:22.820Z,13.83
2018-05-10T16:34:50.217Z,13.07
2018-05-10T16:37:17.594Z,13.40
2018-05-10T16:39:45.043Z,14.90
2018-05-10T16:42:12.433Z,14.80
2018-05-10T16:44:39.835Z,13.67
2018-05-10T16:47:07.266Z,15.40
2018-05-10T16:49:34.644Z,12.17
2018-05-10T16:52:02.041Z,12.77
2018-05-10T16:54:29.430Z,13.67
2018-05-10T16:56:56.827Z,13.37
2018-05-10T16:59:24.327Z,12.53
2018-05-10T17:01:51.714Z,12.07
2018-05-10T17:04:19.107Z,14.10
2018-05-10T17:06:46.547Z,13.13
2018-05-10T17:09:13.937Z,12.13
2018-05-10T17:11:41.391Z,13.97
2018-05-10T17:14:09.393Z,12.90
2018-05-10T17:16:36.937Z,12.30
2018-05-10T17:19:04.337Z,12.53
2018-05-10T17:21:31.711Z,13.17
2018-05-10T17:23:59.130Z,15.17
2018-05-10T17:26:26.515Z,13.27
2018-05-10T17:28:53.912Z,12.40
2018-05-10T17:31:21.304Z,12.93
2018-05-10T17:33:48.711Z,13.50
2018-05-10T17:36:16.111Z,13.17
2018-05-10T17:38:43.502Z,14.47
2018-05-10T17:41:10.895Z,13.67
2018-05-10T17:43:38.295Z,14.43
2018-05-10T17:46:05.683Z,16.60
2018-05-10T17:48:33.066Z,12.50
2018-05-10T17:51:00.878Z,11.73
2018-05-10T17:53:28.248Z,11.83
2018-05-10T17:55:55.639Z,12.30
2018-05-10T17:58:23.023Z,12.17
2018-05-10T18:00:50.424Z,12.00
2018-05-10T18:03:17.843Z,11.87
2018-05-10T18:05:45.240Z,11.83
2018-05-10T18:08:12.626Z,13.53
2018-05-10T18:10:40.096Z,12.33
2018-05-10T18:13:07.751Z,11.70
2018-05-10T18:15:35.080Z,11.83
2018-05-10T18:18:02.535Z,12.37
2018-05-10T18:20:29.923Z,11.53
2018-05-10T18:22:57.311Z,12.47
2018-05-10T18:25:24.699Z,12.27
2018-05-10T18:27:52.099Z,13.03
2018-05-10T18:30:19.505Z,12.37
2018-05-10T18:32:46.887Z,11.93
2018-05-10T18:35:14.270Z,12.70
2018-05-10T18:37:41.664Z,12.47
2018-05-10T18:40:09.059Z,12.00
2018-05-10T18:42:36.563Z,12.97
2018-05-10T18:45:03.955Z,12.00
2018-05-10T18:47:31.338Z,11.90
2018-05-10T18:49:58.734Z,11.70
2018-05-10T18:52:26.123Z,12.03
2018-05-10T18:54:53.596Z,11.70
2018-05-10T18:57:20.898Z,11.70
2018-05-10T18:59:48.563Z,11.03
2018-05-10T19:02:15.955Z,12.37
2018-05-10T19:04:43.479Z,11.70
2018-05-10T19:07:10.871Z,12.20
2018-05-10T19:09:38.260Z,11.03
2018-05-10T19:12:05.651Z,11.47
2018-05-10T19:14:33.182Z,11.37
2018-05-10T19:17:00.575Z,11.40
2018-05-10T19:19:27.974Z,11.17
2018-05-10T19:21:55.356Z,11.70
2018-05-10T19:24:22.748Z,12.17
2018-05-10T19:26:50.154Z,11.50
2018-05-10T19:29:17.539Z,11.70
2018-05-10T19:31:44.987Z,11.53
2018-05-10T19:34:12.331Z,11.43
2018-05-10T19:36:39.719Z,11.60
2018-05-10T19:39:07.107Z,11.80
2018-05-10T19:41:34.496Z,12.27
2018-05-10T19:44:01.910Z,10.60
2018-05-10T19:46:29.304Z,11.47
2018-05-10T19:48:56.690Z,10.60
2018-05-10T19:51:24.185Z,11.17
2018-05-10T19:53:51.524Z,10.73
2018-05-10T19:56:18.899Z,9.80
2018-05-10T19:58:46.283Z,10.60
2018-05-10T20:01:13.748Z,10.30
2018-05-10T20:03:41.055Z,10.93
2018-05-10T20:06:08.455Z,12.27
2018-05-10T20:08:35.846Z,10.40
2018-05-10T20:11:03.232Z,13.10
2018-05-10T20:13:30.611Z,10.47
2018-05-10T20:15:58.011Z,11.07
2018-05-10T20:18:25.395Z,10.70
2018-05-10T20:20:52.787Z,10.97
2018-05-10T20:23:20.186Z,11.27
2018-05-10T20:25:47.563Z,10.17
2018-05-10T20:28:14.960Z,10.60
2018-05-10T20:30:42.385Z,10.67
2018-05-10T20:33:09.779Z,10.47
2018-05-10T20:35:37.165Z,10.60
2018-05-10T20:38:04.566Z,10.03
2018-05-10T20:40:31.939Z,11.23
2018-05-10T20:42:59.418Z,10.93
2018-05-10T20:45:26.723Z,12.57
2018-05-10T20:47:54.111Z,11.63
2018-05-10T20:50:21.507Z,11.70
2018-05-10T20:52:48.899Z,11.83
2018-05-10T20:55:16.286Z,15.90
2018-05-10T20:57:43.682Z,11.47
2018-05-10T21:00:11.071Z,12.67
2018-05-10T21:02:38.451Z,12.10
2018-05-10T21:05:05.847Z,12.20
2018-05-10T21:07:33.243Z,12.13
2018-05-10T21:10:00.718Z,12.60
2018-05-10T21:12:47.863Z,12.73
2018-05-10T21:15:15.254Z,11.97
2018-05-10T21:17:42.638Z,13.07
2018-05-10T21:20:10.035Z,12.10
2018-05-10T21:22:37.423Z,11.93
2018-05-10T21:25:04.822Z,13.03
2018-05-10T21:27:32.200Z,12.70
2018-05-10T21:29:59.591Z,12.37
2018-05-10T21:32:26.981Z,11.27
2018-05-10T21:34:54.367Z,12.13
2018-05-10T21:37:21.755Z,11.53
2018-05-10T21:39:49.151Z,12.40
2018-05-10T21:42:16.541Z,12.00
2018-05-10T21:44:43.981Z,12.60
2018-05-10T21:47:11.364Z,12.97
2018-05-10T21:49:50.579Z,13.07
2018-05-10T21:52:17.972Z,12.23
2018-05-10T21:54:45.363Z,13.53
2018-05-10T21:57:12.743Z,13.77
2018-05-10T21:59:40.183Z,12.33
2018-05-10T22:02:08.159Z,13.43
2018-05-10T22:04:35.560Z,13.73
2018-05-10T22:07:02.951Z,13.50
2018-05-10T22:09:30.351Z,13.83
2018-05-10T22:11:57.735Z,13.57
2018-05-10T22:14:25.134Z,15.73
2018-05-10T22:16:52.519Z,13.67
2018-05-10T22:19:19.915Z,14.63
2018-05-10T22:21:47.299Z,13.20
2018-05-10T22:24:14.762Z,12.87
2018-05-10T22:26:42.210Z,13.80
2018-05-10T22:29:09.587Z,13.90
2018-05-10T22:31:36.979Z,13.63
2018-05-10T22:34:04.372Z,14.03
2018-05-10T22:36:31.763Z,13.20
2018-05-10T22:38:59.147Z,13.90
2018-05-10T22:41:26.543Z,13.37
2018-05-10T22:43:53.923Z,13.03
2018-05-10T22:46:21.315Z,13.63
2018-05-10T22:48:48.699Z,14.73
2018-05-10T22:51:16.086Z,14.07
2018-05-10T22:53:43.483Z,13.57
2018-05-10T22:56:10.867Z,13.90
2018-05-10T22:58:38.264Z,14.97
2018-05-10T23:01:05.659Z,15.30
2018-05-10T23:03:33.058Z,14.63
2018-05-10T23:06:00.447Z,15.20
2018-05-10T23:08:27.891Z,15.60
2018-05-10T23:10:55.278Z,14.27
2018-05-10T23:13:22.675Z,16.63
2018-05-10T23:15:50.071Z,15.00
2018-05-10T23:18:17.471Z,14.93
2018-05-10T23:20:44.863Z,14.80
2018-05-10T23:23:12.256Z,15.30
2018-05-10T23:25:39.647Z,15.70
2018-05-10T23:28:07.037Z,15.87
2018-05-10T23:30:34.430Z,14.90
2018-05-10T23:33:01.819Z,14.70
2018-05-10T23:35:29.213Z,14.37
2018-05-10T23:37:56.599Z,16.77
2018-05-10T23:40:23.991Z,16.30
2018-05-10T23:42:51.382Z,15.27
2018-05-10T23:45:18.779Z,14.80
2018-05-10T23:47:46.169Z,15.23
2018-05-10T23:50:13.556Z,15.03
2018-05-10T23:52:40.951Z,16.20
2018-05-10T23:55:08.339Z,17.80
2018-05-10T23:57:35.731Z,17.17
